createdAt,value
2018-08-04T00:02:16.776Z,82.60
2018-08-04T00:04:44.948Z,82.70
2018-08-04T00:07:13.099Z,83.00
2018-08-04T00:09:41.312Z,83.40
2018-08-04T00:12:09.649Z,83.90
2018-08-04T00:14:37.868Z,84.40
2018-08-04T00:17:06.085Z,84.30
2018-08-04T00:19:34.223Z,84.50
2018-08-04T00:22:02.414Z,84.50
2018-08-04T00:24:30.592Z,84.60
2018-08-04T00:26:58.770Z,84.50
2018-08-04T00:29:26.924Z,84.60
2018-08-04T00:31:55.112Z,84.80
2018-08-04T00:34:23.244Z,85.30
2018-08-04T00:36:51.428Z,84.80
2018-08-04T00:39:19.644Z,84.40
2018-08-04T00:41:47.798Z,84.20
2018-08-04T00:44:15.992Z,83.90
2018-08-04T00:46:44.141Z,83.50
2018-08-04T00:49:12.336Z,83.60
2018-08-04T00:51:40.528Z,83.20
2018-08-04T00:54:08.695Z,83.00
2018-08-04T00:56:36.874Z,83.30
2018-08-04T00:59:05.100Z,83.30
2018-08-04T01:01:33.320Z,83.20
2018-08-04T01:04:01.464Z,82.90
2018-08-04T01:06:29.665Z,83.50
2018-08-04T01:08:57.848Z,84.10
2018-08-04T01:11:26.101Z,84.70
2018-08-04T01:13:54.264Z,84.80
2018-08-04T01:16:22.408Z,85.30
2018-08-04T01:18:50.604Z,85.40
2018-08-04T01:21:18.828Z,85.60
2018-08-04T01:23:46.967Z,85.80
2018-08-04T01:26:15.149Z,85.40
2018-08-04T01:28:43.293Z,85.30
2018-08-04T01:31:11.464Z,85.00
2018-08-04T01:33:39.628Z,84.90
2018-08-04T01:36:07.800Z,84.70
2018-08-04T01:38:35.967Z,84.80
2018-08-04T01:41:04.125Z,84.50
2018-08-04T01:43:32.304Z,84.60
2018-08-04T01:46:00.488Z,84.20
2018-08-04T01:48:28.668Z,84.00
2018-08-04T01:50:56.848Z,83.60
2018-08-04T01:53:25.001Z,84.10
2018-08-04T01:55:53.240Z,83.80
2018-08-04T01:58:21.416Z,84.90
2018-08-04T02:00:49.632Z,85.10
2018-08-04T02:03:17.821Z,85.00
2018-08-04T02:05:45.973Z,84.90
2018-08-04T02:08:14.156Z,84.90
2018-08-04T02:10:42.332Z,85.50
2018-08-04T02:13:10.529Z,85.70
2018-08-04T02:15:38.703Z,85.90
2018-08-04T02:18:06.856Z,85.80
2018-08-04T02:20:35.033Z,85.90
2018-08-04T02:23:03.206Z,85.50
2018-08-04T02:25:31.384Z,85.60
2018-08-04T02:27:59.537Z,85.40
2018-08-04T02:30:27.746Z,85.40
2018-08-04T02:32:55.932Z,85.40
2018-08-04T02:35:24.091Z,85.50
2018-08-04T02:37:52.297Z,85.20
2018-08-04T02:40:20.465Z,85.40
2018-08-04T02:42:48.695Z,85.40
2018-08-04T02:45:16.899Z,85.20
2018-08-04T02:47:45.045Z,85.40
2018-08-04T02:50:13.251Z,85.30
2018-08-04T02:52:41.393Z,85.20
2018-08-04T02:55:09.580Z,85.40
2018-08-04T02:57:37.778Z,85.00
2018-08-04T03:00:06.166Z,84.90
2018-08-04T03:02:34.389Z,84.90
2018-08-04T03:05:02.665Z,85.10
2018-08-04T03:07:30.868Z,85.20
2018-08-04T03:09:59.040Z,85.10
2018-08-04T03:12:27.193Z,85.50
2018-08-04T03:14:55.368Z,85.20
2018-08-04T03:17:23.528Z,85.20
2018-08-04T03:19:51.703Z,85.20
2018-08-04T03:22:19.848Z,85.30
2018-08-04T03:24:48.068Z,85.00
2018-08-04T03:27:16.224Z,85.20
2018-08-04T03:29:44.420Z,85.80
2018-08-04T03:32:12.608Z,86.40
2018-08-04T03:34:40.758Z,87.00
2018-08-04T03:37:08.969Z,87.10
2018-08-04T03:39:37.132Z,87.10
2018-08-04T03:42:05.338Z,86.70
2018-08-04T03:44:33.549Z,86.70
2018-08-04T03:47:01.694Z,86.10
2018-08-04T03:49:29.889Z,86.30
2018-08-04T03:51:58.040Z,86.30
2018-08-04T03:54:26.228Z,86.20
2018-08-04T03:56:54.404Z,86.20
2018-08-04T03:59:22.551Z,86.40
2018-08-04T04:01:50.792Z,86.60
2018-08-04T04:04:18.985Z,87.30
2018-08-04T04:06:47.166Z,87.50
2018-08-04T04:09:15.320Z,87.90
2018-08-04T04:11:43.505Z,88.00
2018-08-04T04:14:11.711Z,88.00
2018-08-04T04:16:39.864Z,87.90
2018-08-04T04:19:08.052Z,88.10
2018-08-04T04:21:36.192Z,88.30
2018-08-04T04:24:04.425Z,88.40
2018-08-04T04:26:32.568Z,88.50
2018-08-04T04:29:00.770Z,88.50
2018-08-04T04:31:28.984Z,88.50
2018-08-04T04:33:57.128Z,88.50
2018-08-04T04:36:25.317Z,88.50
2018-08-04T04:38:53.472Z,88.40
2018-08-04T04:41:21.644Z,88.40
2018-08-04T04:43:50.223Z,88.10
2018-08-04T04:46:18.416Z,88.00
2018-08-04T04:48:46.604Z,87.70
2018-08-04T04:51:14.760Z,87.80
2018-08-04T04:53:42.944Z,87.30
2018-08-04T04:56:11.143Z,87.30
2018-08-04T04:58:39.335Z,87.10
2018-08-04T05:01:07.539Z,86.80
2018-08-04T05:03:35.752Z,86.50
2018-08-04T05:06:03.943Z,86.40
2018-08-04T05:08:32.109Z,86.10
2018-08-04T05:11:00.301Z,85.50
2018-08-04T05:13:28.498Z,85.30
2018-08-04T05:15:56.676Z,84.70
2018-08-04T05:18:24.875Z,84.40
2018-08-04T05:20:53.053Z,84.10
2018-08-04T05:23:21.248Z,83.80
2018-08-04T05:25:49.422Z,82.90
2018-08-04T05:28:17.600Z,81.90
2018-08-04T05:30:45.789Z,81.80
2018-08-04T05:33:14.329Z,81.30
2018-08-04T05:35:42.689Z,81.10
2018-08-04T05:38:10.952Z,81.00
2018-08-04T05:40:39.148Z,80.00
2018-08-04T05:43:07.344Z,79.70
2018-08-04T05:45:35.497Z,79.20
2018-08-04T05:48:03.752Z,79.50
2018-08-04T05:50:31.928Z,79.40
2018-08-04T05:53:00.168Z,78.40
2018-08-04T05:55:28.421Z,79.10
2018-08-04T05:57:56.644Z,78.80
2018-08-04T06:00:24.933Z,78.50
2018-08-04T06:02:53.121Z,78.90
2018-08-04T06:05:21.322Z,78.20
2018-08-04T06:07:49.604Z,76.80
2018-08-04T06:10:17.775Z,77.30
2018-08-04T06:12:46.033Z,76.60
2018-08-04T06:15:14.261Z,76.90
2018-08-04T06:17:42.541Z,76.80
2018-08-04T06:20:10.752Z,76.50
2018-08-04T06:22:38.908Z,76.80
2018-08-04T06:25:07.097Z,75.90
2018-08-04T06:27:35.244Z,75.10
2018-08-04T06:30:03.672Z,74.10
2018-08-04T06:32:31.913Z,74.30
2018-08-04T06:35:00.060Z,74.00
2018-08-04T06:37:28.257Z,74.40
2018-08-04T06:39:56.401Z,73.70
2018-08-04T06:42:24.612Z,73.20
2018-08-04T06:44:52.805Z,73.70
2018-08-04T06:47:20.973Z,73.60
2018-08-04T06:49:49.140Z,72.50
2018-08-04T06:52:17.309Z,71.90
2018-08-04T06:54:45.492Z,70.70
2018-08-04T06:57:13.770Z,71.20
2018-08-04T06:59:41.924Z,71.00
2018-08-04T07:02:10.149Z,70.80
2018-08-04T07:04:38.344Z,70.20
2018-08-04T07:07:07.232Z,70.40
2018-08-04T07:09:35.515Z,69.80
2018-08-04T07:14:31.836Z,70.40
2018-08-04T07:17:00.094Z,69.70
2018-08-04T07:19:28.380Z,68.60
2018-08-04T07:21:56.601Z,68.20
2018-08-04T07:24:24.789Z,68.60
2018-08-04T07:26:52.989Z,69.70
2018-08-04T07:29:21.140Z,68.80
2018-08-04T07:31:49.343Z,68.50
2018-08-04T07:34:17.572Z,68.10
2018-08-04T07:36:45.721Z,67.20
2018-08-04T07:39:13.934Z,68.20
2018-08-04T07:41:42.108Z,68.60
2018-08-04T07:44:10.302Z,67.70
2018-08-04T07:46:38.532Z,66.80
2018-08-04T07:49:06.745Z,66.40
2018-08-04T07:51:34.961Z,66.50
2018-08-04T07:54:03.105Z,67.30
2018-08-04T07:56:31.330Z,66.30
2018-08-04T07:58:59.511Z,66.00
2018-08-04T08:01:27.708Z,66.20
2018-08-04T08:03:55.981Z,66.50
2018-08-04T08:06:24.164Z,67.60
2018-08-04T08:08:52.396Z,66.40
2018-08-04T08:11:20.692Z,67.00
2018-08-04T08:13:48.880Z,66.50
2018-08-04T08:16:17.097Z,65.90
2018-08-04T08:18:45.282Z,65.70
2018-08-04T08:21:13.541Z,63.80
2018-08-04T08:23:41.855Z,64.90
2018-08-04T08:26:13.035Z,65.00
2018-08-04T08:28:42.061Z,65.10
2018-08-04T08:31:10.418Z,64.40
2018-08-04T08:33:39.555Z,64.80
2018-08-04T08:36:08.319Z,65.10
2018-08-04T08:38:36.638Z,63.50
2018-08-04T08:41:04.841Z,64.50
2018-08-04T08:43:33.089Z,66.20
2018-08-04T08:46:01.378Z,64.90
2018-08-04T08:48:29.550Z,65.20
2018-08-04T08:50:57.776Z,65.20
2018-08-04T08:53:26.161Z,64.80
2018-08-04T08:55:54.283Z,64.50
2018-08-04T08:58:22.528Z,65.00
2018-08-04T09:00:50.716Z,64.60
2018-08-04T09:03:18.980Z,63.60
2018-08-04T09:05:47.236Z,63.20
2018-08-04T09:08:15.735Z,61.80
2018-08-04T09:10:44.035Z,63.10
2018-08-04T09:13:12.221Z,61.40
2018-08-04T09:15:40.474Z,62.00
2018-08-04T09:18:08.648Z,63.20
2018-08-04T09:20:36.830Z,63.50
2018-08-04T09:23:05.086Z,61.50
2018-08-04T09:25:33.313Z,61.60
2018-08-04T09:28:01.484Z,60.90
2018-08-04T09:30:29.695Z,60.70
2018-08-04T09:32:57.865Z,60.20
2018-08-04T09:35:26.265Z,61.30
2018-08-04T09:37:54.468Z,61.40
2018-08-04T09:40:22.692Z,61.20
2018-08-04T09:42:50.880Z,61.10
2018-08-04T09:45:19.049Z,61.30
2018-08-04T09:47:47.808Z,61.20
2018-08-04T09:50:15.982Z,61.00
2018-08-04T09:52:44.179Z,60.50
2018-08-04T09:55:12.721Z,61.00
2018-08-04T09:57:41.449Z,59.50
2018-08-04T10:00:15.552Z,60.50
2018-08-04T10:02:43.746Z,59.10
2018-08-04T10:05:12.014Z,58.10
2018-08-04T10:07:40.164Z,59.10
2018-08-04T10:10:08.407Z,58.50
2018-08-04T10:12:36.552Z,59.10
2018-08-04T10:15:06.996Z,59.60
2018-08-04T10:17:35.255Z,58.10
2018-08-04T10:20:03.632Z,59.20
2018-08-04T10:22:31.861Z,59.70
2018-08-04T10:25:00.079Z,59.40
2018-08-04T10:27:28.296Z,59.50
2018-08-04T10:29:56.534Z,59.70
2018-08-04T10:32:24.788Z,57.60
2018-08-04T10:34:53.012Z,55.30
2018-08-04T10:37:21.183Z,56.10
2018-08-04T10:39:49.397Z,57.40
2018-08-04T10:42:17.611Z,55.30
2018-08-04T10:44:45.776Z,53.00
2018-08-04T10:47:13.981Z,52.70
2018-08-04T10:49:42.153Z,53.00
2018-08-04T10:52:10.404Z,53.40
2018-08-04T10:54:38.700Z,50.70
2018-08-04T10:57:06.876Z,50.80
2018-08-04T10:59:35.164Z,49.70
2018-08-04T11:02:03.388Z,51.40
2018-08-04T11:04:31.577Z,51.40
2018-08-04T11:06:59.774Z,49.60
2018-08-04T11:09:28.068Z,50.70
2018-08-04T11:11:56.336Z,48.40
2018-08-04T11:14:24.522Z,50.10
2018-08-04T11:16:52.724Z,49.10
2018-08-04T11:19:20.916Z,49.90
2018-08-04T11:21:49.084Z,48.90
2018-08-04T11:24:17.299Z,49.20
2018-08-04T11:26:45.540Z,51.50
2018-08-04T11:29:13.809Z,49.30
2018-08-04T11:31:42.020Z,47.10
2018-08-04T11:34:10.185Z,48.40
2018-08-04T11:36:38.373Z,49.10
2018-08-04T11:39:08.558Z,50.00
2018-08-04T11:41:36.764Z,51.30
2018-08-04T11:44:05.012Z,49.40
2018-08-04T11:46:33.225Z,47.60
2018-08-04T11:49:01.439Z,50.90
2018-08-04T11:51:29.626Z,51.20
2018-08-04T11:53:57.830Z,50.40
2018-08-04T11:56:26.032Z,51.40
2018-08-04T11:58:54.184Z,50.50
2018-08-04T12:01:22.397Z,50.10
2018-08-04T12:03:50.552Z,50.80
2018-08-04T12:06:18.760Z,50.50
2018-08-04T12:08:46.985Z,49.20
2018-08-04T12:11:15.180Z,48.10
2018-08-04T12:13:43.428Z,48.30
2018-08-04T12:16:11.622Z,48.00
2018-08-04T12:18:39.812Z,49.10
2018-08-04T12:21:08.049Z,50.80
2018-08-04T12:23:36.224Z,49.30
2018-08-04T12:26:04.465Z,48.20
2018-08-04T12:31:00.560Z,48.40
2018-08-04T12:33:28.700Z,47.40
2018-08-04T12:35:56.892Z,48.20
2018-08-04T12:38:25.105Z,49.80
2018-08-04T12:40:53.267Z,48.80
2018-08-04T12:43:21.472Z,48.20
2018-08-04T12:45:49.628Z,47.70
2018-08-04T12:48:17.827Z,47.90
2018-08-04T12:50:46.027Z,47.00
2018-08-04T12:53:14.185Z,47.20
2018-08-04T12:55:42.497Z,46.50
2018-08-04T12:58:10.709Z,45.90
2018-08-04T13:00:38.896Z,47.50
2018-08-04T13:03:07.098Z,46.60
2018-08-04T13:05:35.265Z,47.90
2018-08-04T13:08:03.518Z,46.80
2018-08-04T13:10:31.719Z,46.30
2018-08-04T13:12:59.937Z,47.20
2018-08-04T13:15:28.136Z,49.00
2018-08-04T13:17:56.284Z,47.00
2018-08-04T13:20:24.483Z,45.30
2018-08-04T13:22:52.703Z,47.00
2018-08-04T13:25:20.852Z,47.80
2018-08-04T13:27:49.037Z,46.30
2018-08-04T13:30:17.191Z,47.30
2018-08-04T13:32:45.364Z,46.70
2018-08-04T13:35:13.540Z,47.20
2018-08-04T13:37:41.738Z,46.80
2018-08-04T13:40:10.050Z,47.70
2018-08-04T13:42:38.242Z,47.10
2018-08-04T13:45:06.811Z,47.00
2018-08-04T13:50:03.040Z,46.40
2018-08-04T13:52:31.289Z,46.60
2018-08-04T13:54:59.452Z,47.10
2018-08-04T13:57:27.701Z,46.70
2018-08-04T13:59:55.889Z,47.10
2018-08-04T14:02:24.093Z,47.20
2018-08-04T14:04:52.280Z,46.80
2018-08-04T14:07:20.449Z,47.90
2018-08-04T14:09:48.644Z,48.30
2018-08-04T14:12:16.832Z,50.30
2018-08-04T14:14:45.036Z,48.10
2018-08-04T14:17:13.229Z,49.60
2018-08-04T14:19:41.377Z,50.60
2018-08-04T14:22:09.581Z,50.30
2018-08-04T14:24:37.740Z,48.10
2018-08-04T14:27:05.943Z,49.60
2018-08-04T14:29:34.137Z,50.20
2018-08-04T14:32:02.297Z,48.20
2018-08-04T14:34:30.490Z,50.40
2018-08-04T14:36:58.668Z,49.80
2018-08-04T14:39:26.902Z,49.90
2018-08-04T14:41:55.108Z,49.70
2018-08-04T14:44:23.305Z,50.90
2018-08-04T14:46:51.526Z,49.60
2018-08-04T14:49:19.665Z,50.10
2018-08-04T14:51:47.865Z,49.70
2018-08-04T14:54:16.085Z,49.90
2018-08-04T14:56:44.249Z,49.80
2018-08-04T14:59:12.444Z,50.20
2018-08-04T15:01:40.605Z,51.00
2018-08-04T15:04:08.853Z,51.00
2018-08-04T15:06:37.048Z,50.70
2018-08-04T15:09:07.752Z,49.90
2018-08-04T15:11:36.000Z,49.90
2018-08-04T15:14:04.285Z,50.30
2018-08-04T15:16:32.496Z,50.60
2018-08-04T15:19:00.728Z,50.70
2018-08-04T15:21:28.899Z,51.30
2018-08-04T15:23:57.116Z,49.00
2018-08-04T15:26:25.272Z,50.40
2018-08-04T15:28:53.476Z,50.70
2018-08-04T15:31:21.684Z,51.40
2018-08-04T15:33:50.079Z,50.30
2018-08-04T15:36:18.283Z,51.60
2018-08-04T15:38:46.428Z,51.60
2018-08-04T15:41:14.629Z,51.70
2018-08-04T15:43:42.808Z,51.30
2018-08-04T15:46:11.009Z,52.20
2018-08-04T15:48:39.188Z,52.30
2018-08-04T15:51:07.396Z,52.20
2018-08-04T15:53:35.608Z,51.70
2018-08-04T15:56:03.772Z,52.70
2018-08-04T15:58:31.965Z,52.10
2018-08-04T16:01:00.124Z,51.60
2018-08-04T16:03:28.309Z,53.10
2018-08-04T16:05:56.596Z,52.70
2018-08-04T16:08:24.760Z,53.80
2018-08-04T16:10:53.006Z,52.90
2018-08-04T16:13:21.201Z,52.70
2018-08-04T16:15:49.385Z,52.50
2018-08-04T16:18:17.566Z,53.30
2018-08-04T16:20:45.709Z,53.00
2018-08-04T16:23:13.912Z,52.00
2018-08-04T16:25:42.067Z,52.00
2018-08-04T16:28:10.253Z,52.60
2018-08-04T16:30:38.440Z,52.10
2018-08-04T16:33:06.604Z,52.80
2018-08-04T16:35:34.792Z,52.90
2018-08-04T16:38:02.964Z,54.00
2018-08-04T16:40:31.187Z,56.10
2018-08-04T16:42:59.402Z,53.30
2018-08-04T16:45:27.579Z,55.00
2018-08-04T16:47:55.836Z,55.20
2018-08-04T16:50:24.009Z,53.60
2018-08-04T16:52:52.197Z,55.20
2018-08-04T16:55:20.399Z,59.00
2018-08-04T16:57:48.577Z,60.20
2018-08-04T17:00:16.782Z,61.10
2018-08-04T17:02:44.921Z,61.90
2018-08-04T17:05:13.117Z,63.00
2018-08-04T17:07:41.308Z,63.70
2018-08-04T17:10:09.453Z,64.70
2018-08-04T17:12:37.704Z,64.80
2018-08-04T17:15:06.171Z,65.30
2018-08-04T17:17:34.396Z,65.90
2018-08-04T17:20:02.749Z,65.10
2018-08-04T17:22:30.916Z,65.40
2018-08-04T17:24:59.096Z,66.10
2018-08-04T17:27:27.252Z,65.70
2018-08-04T17:29:55.439Z,66.00
2018-08-04T17:32:23.636Z,66.30
2018-08-04T17:34:51.812Z,66.20
2018-08-04T17:37:20.048Z,66.00
2018-08-04T17:39:48.220Z,66.00
2018-08-04T17:42:16.417Z,65.70
2018-08-04T17:44:44.768Z,66.00
2018-08-04T17:47:12.964Z,66.00
2018-08-04T17:49:41.155Z,66.30
2018-08-04T17:52:09.402Z,66.30
2018-08-04T17:54:37.692Z,66.70
2018-08-04T17:57:06.220Z,67.20
2018-08-04T17:59:34.508Z,67.60
2018-08-04T18:02:02.681Z,67.70
2018-08-04T18:04:30.869Z,68.30
2018-08-04T18:06:59.108Z,68.00
2018-08-04T18:09:27.291Z,67.90
2018-08-04T18:11:55.519Z,67.90
2018-08-04T18:14:23.677Z,68.50
2018-08-04T18:16:51.909Z,69.10
2018-08-04T18:19:20.472Z,69.60
2018-08-04T18:21:48.634Z,69.90
2018-08-04T18:24:17.180Z,69.90
2018-08-04T18:26:45.340Z,69.70
2018-08-04T18:29:13.612Z,70.00
2018-08-04T18:31:41.765Z,70.00
2018-08-04T18:34:09.963Z,70.10
2018-08-04T18:36:38.214Z,69.90
2018-08-04T18:39:07.634Z,69.90
2018-08-04T18:41:35.846Z,70.20
2018-08-04T18:44:04.101Z,70.50
2018-08-04T18:46:32.264Z,71.00
2018-08-04T18:49:00.456Z,70.90
2018-08-04T18:51:28.621Z,71.30
2018-08-04T18:53:56.887Z,71.20
2018-08-04T18:56:25.065Z,71.30
2018-08-04T18:58:53.246Z,71.20
2018-08-04T19:01:21.444Z,71.10
2018-08-04T19:03:49.632Z,71.30
2018-08-04T19:06:17.841Z,71.40
2018-08-04T19:08:46.024Z,71.80
2018-08-04T19:11:14.221Z,72.10
2018-08-04T19:13:42.492Z,72.10
2018-08-04T19:16:10.710Z,72.20
2018-08-04T19:18:38.968Z,72.20
2018-08-04T19:21:07.209Z,72.60
2018-08-04T19:23:35.414Z,73.00
2018-08-04T19:26:03.617Z,73.30
2018-08-04T19:28:31.852Z,73.40
2018-08-04T19:31:00.169Z,73.30
2018-08-04T19:33:28.325Z,73.10
2018-08-04T19:35:56.516Z,73.40
2018-08-04T19:38:25.712Z,73.10
2018-08-04T19:40:53.885Z,73.00
2018-08-04T19:43:22.477Z,73.40
2018-08-04T19:45:50.649Z,74.00
2018-08-04T19:48:18.934Z,74.70
2018-08-04T19:50:47.108Z,74.80
2018-08-04T19:53:15.323Z,74.80
2018-08-04T19:55:43.536Z,74.80
2018-08-04T19:58:11.750Z,75.00
2018-08-04T20:00:39.917Z,75.10
2018-08-04T20:03:08.324Z,75.30
2018-08-04T20:05:36.476Z,75.80
2018-08-04T20:08:04.691Z,76.60
2018-08-04T20:10:32.944Z,76.50
2018-08-04T20:13:01.160Z,76.50
2018-08-04T20:15:29.343Z,77.10
2018-08-04T20:17:57.597Z,76.80
2018-08-04T20:20:25.846Z,76.50
2018-08-04T20:22:54.005Z,76.60
2018-08-04T20:25:22.213Z,76.30
2018-08-04T20:27:50.460Z,76.20
2018-08-04T20:30:18.608Z,76.50
2018-08-04T20:32:46.821Z,77.00
2018-08-04T20:35:14.992Z,77.60
2018-08-04T20:37:43.208Z,77.70
2018-08-04T20:40:11.397Z,77.60
2018-08-04T20:42:39.848Z,77.70
2018-08-04T20:45:08.133Z,77.80
2018-08-04T20:47:36.289Z,77.80
2018-08-04T20:50:04.697Z,77.60
2018-08-04T20:52:34.015Z,77.40
2018-08-04T20:55:02.362Z,77.30
2018-08-04T20:57:30.579Z,77.20
2018-08-04T20:59:58.731Z,77.50
2018-08-04T21:02:26.947Z,77.40
2018-08-04T21:04:55.108Z,77.40
2018-08-04T21:09:51.308Z,77.50
2018-08-04T21:12:19.509Z,77.60
2018-08-04T21:14:47.781Z,77.30
2018-08-04T21:17:15.975Z,77.40
2018-08-04T21:19:44.241Z,77.50
2018-08-04T21:22:12.461Z,77.80
2018-08-04T21:24:40.713Z,78.00
2018-08-04T21:27:08.892Z,78.50
2018-08-04T21:29:37.125Z,78.50
2018-08-04T21:32:05.332Z,78.60
2018-08-04T21:34:33.507Z,78.80
2018-08-04T21:37:01.677Z,78.90
2018-08-04T21:39:29.876Z,78.80
2018-08-04T21:41:58.064Z,78.90
2018-08-04T21:44:26.323Z,79.00
2018-08-04T21:46:54.495Z,78.50
2018-08-04T21:49:22.671Z,79.10
2018-08-04T21:51:51.160Z,79.40
2018-08-04T21:54:20.193Z,79.30
2018-08-04T21:56:47.941Z,79.80
2018-08-04T21:59:16.204Z,79.80
2018-08-04T22:01:49.912Z,80.20
2018-08-04T22:04:18.156Z,80.30
2018-08-04T22:07:55.253Z,80.80
2018-08-04T22:10:23.497Z,81.50
2018-08-04T22:12:51.688Z,81.60
2018-08-04T22:15:19.876Z,81.40
2018-08-04T22:17:48.061Z,81.60
2018-08-04T22:20:18.508Z,81.50
2018-08-04T22:22:46.872Z,81.60
2018-08-04T22:25:16.417Z,81.50
2018-08-04T22:27:44.724Z,81.70
2018-08-04T22:30:15.215Z,81.90
2018-08-04T22:32:44.122Z,82.20
2018-08-04T22:37:40.692Z,81.50
2018-08-04T22:40:09.885Z,81.40
2018-08-04T22:42:38.517Z,81.50
2018-08-04T22:46:21.572Z,81.30
2018-08-04T22:48:51.032Z,81.30
2018-08-04T22:51:27.548Z,81.90
2018-08-04T22:53:55.860Z,82.10
2018-08-04T22:56:24.325Z,82.00
2018-08-04T22:58:52.519Z,82.80
2018-08-04T23:01:20.666Z,82.90
2018-08-04T23:03:48.858Z,83.40
2018-08-04T23:06:17.016Z,83.70
2018-08-04T23:08:45.229Z,83.70
2018-08-04T23:11:13.444Z,84.00
2018-08-04T23:13:41.615Z,83.60
2018-08-04T23:16:09.817Z,83.80
2018-08-04T23:18:37.952Z,83.60
2018-08-04T23:21:06.447Z,83.20
2018-08-04T23:23:34.708Z,82.90
2018-08-04T23:26:02.948Z,83.10
2018-08-04T23:28:31.182Z,83.10
2018-08-04T23:30:59.348Z,83.00
2018-08-04T23:33:27.533Z,83.00
2018-08-04T23:35:55.938Z,82.80
2018-08-04T23:38:24.104Z,82.60
2018-08-04T23:40:52.303Z,82.60
2018-08-04T23:43:20.456Z,82.60
2018-08-04T23:45:48.656Z,82.50
2018-08-04T23:48:16.884Z,82.60
2018-08-04T23:50:45.065Z,82.40
2018-08-04T23:53:13.284Z,82.60
2018-08-04T23:55:41.432Z,83.00
2018-08-04T23:58:09.641Z,83.00
